Time;durP1;ratioP1;P1;durP2;ratioP2;P2;SDS_P1;SDS_P2;PMS_P1;PMS_P2;Temp;Humidity;BMP_temperature;BMP_pressure;BME280_temperature;BME280_humidity;BME280_pressure;Samples;Min_cycle;Max_cycle;Signal;HPM_P1;HPM_P2
2022/08/31 00:04:31;;;;;;;5.03;2.35;;;;;;;;;;4951121;28;89289;-69
2022/08/31 00:06:57;;;;;;;3.90;2.10;;;;;;;;;;4950762;28;90166;-69
2022/08/31 00:09:24;;;;;;;5.72;2.03;;;;;;;;;;4932057;28;90756;-69
2022/08/31 00:11:50;;;;;;;8.20;2.35;;;;;;;;;;4952706;28;89280;-71
2022/08/31 00:14:17;;;;;;;4.07;1.88;;;;;;;;;;4950185;28;91371;-71
2022/08/31 00:16:45;;;;;;;8.93;2.17;;;;;;;;;;4949018;28;89491;-69
2022/08/31 00:19:12;;;;;;;6.07;2.00;;;;;;;;;;4951575;28;89700;-70
2022/08/31 00:21:39;;;;;;;7.82;1.92;;;;;;;;;;4950405;28;89897;-70
2022/08/31 00:24:05;;;;;;;3.85;2.22;;;;;;;;;;4950593;28;89265;-69
2022/08/31 00:26:32;;;;;;;4.53;2.10;;;;;;;;;;4948557;28;90290;-71
2022/08/31 00:28:58;;;;;;;3.38;2.00;;;;;;;;;;4948482;28;90073;-70
2022/08/31 00:31:24;;;;;;;3.95;2.00;;;;;;;;;;4951277;28;89085;-70
2022/08/31 00:33:51;;;;;;;6.88;2.20;;;;;;;;;;4951792;28;88951;-70
2022/08/31 00:36:21;;;;;;;5.35;1.92;;;;;;;;;;4948859;28;89132;-70
2022/08/31 00:38:48;;;;;;;6.20;2.05;;;;;;;;;;4949974;28;89926;-70
2022/08/31 00:41:16;;;;;;;3.08;1.92;;;;;;;;;;4951238;28;90246;-70
2022/08/31 00:43:47;;;;;;;4.05;2.20;;;;;;;;;;4948396;28;88925;-70
2022/08/31 00:46:15;;;;;;;4.50;2.20;;;;;;;;;;4951340;28;89756;-70
2022/08/31 00:48:44;;;;;;;4.55;2.15;;;;;;;;;;4950348;28;90003;-70
2022/08/31 00:51:11;;;;;;;6.18;2.13;;;;;;;;;;4951013;28;89149;-69
2022/08/31 00:53:38;;;;;;;4.45;2.50;;;;;;;;;;4946637;28;89980;-70
2022/08/31 00:56:06;;;;;;;3.60;2.10;;;;;;;;;;4949773;28;89809;-69
2022/08/31 00:58:32;;;;;;;3.55;2.00;;;;;;;;;;4949283;28;89178;-70
2022/08/31 01:00:59;;;;;;;7.47;2.22;;;;;;;;;;4949750;28;90045;-70
2022/08/31 01:03:26;;;;;;;7.75;2.10;;;;;;;;;;4946703;28;89201;-69
2022/08/31 01:05:52;;;;;;;6.25;2.10;;;;;;;;;;4949860;28;90826;-70
2022/08/31 01:08:18;;;;;;;4.72;2.22;;;;;;;;;;4950060;28;90788;-70
2022/08/31 01:10:56;;;;;;;4.72;2.00;;;;;;;;;;4946916;28;89728;-70
2022/08/31 01:13:23;;;;;;;3.92;2.10;;;;;;;;;;4949832;28;89895;-70
2022/08/31 01:15:57;;;;;;;3.58;1.88;;;;;;;;;;4949476;28;90501;-70
2022/08/31 01:18:24;;;;;;;3.90;1.92;;;;;;;;;;4951204;28;89299;-70
2022/08/31 01:20:55;;;;;;;3.50;1.95;;;;;;;;;;4950173;28;89342;-70
2022/08/31 01:23:44;;;;;;;5.75;2.15;;;;;;;;;;4946700;28;90339;-70
2022/08/31 01:26:13;;;;;;;4.43;2.08;;;;;;;;;;4930418;28;89956;-70
2022/08/31 01:28:40;;;;;;;5.15;2.13;;;;;;;;;;4929841;28;90604;-70
2022/08/31 01:31:09;;;;;;;3.45;1.70;;;;;;;;;;4930257;28;89086;-70
2022/08/31 01:33:36;;;;;;;3.28;2.03;;;;;;;;;;4946204;28;90243;-70
2022/08/31 01:36:03;;;;;;;3.95;2.20;;;;;;;;;;4931844;28;89902;-70
2022/08/31 01:38:30;;;;;;;5.03;2.40;;;;;;;;;;4949890;28;88683;-70
2022/08/31 01:41:00;;;;;;;4.25;2.20;;;;;;;;;;4949298;28;90117;-70
2022/08/31 01:43:28;;;;;;;2.63;1.77;;;;;;;;;;4949412;28;89387;-70
2022/08/31 01:45:54;;;;;;;4.28;2.00;;;;;;;;;;4949532;28;89624;-70
2022/08/31 01:48:21;;;;;;;3.35;2.03;;;;;;;;;;4948498;28;89843;-70
2022/08/31 01:50:47;;;;;;;10.07;2.40;;;;;;;;;;4949004;28;88853;-70
2022/08/31 01:53:13;;;;;;;3.40;2.15;;;;;;;;;;4947035;28;89806;-70
2022/08/31 01:55:41;;;;;;;6.78;2.50;;;;;;;;;;4949411;28;89911;-70
2022/08/31 01:58:07;;;;;;;7.30;2.30;;;;;;;;;;4947515;28;89104;-69
2022/08/31 02:00:34;;;;;;;6.75;1.98;;;;;;;;;;4947867;28;90781;-70
2022/08/31 02:03:01;;;;;;;3.63;2.00;;;;;;;;;;4948504;28;89256;-70
2022/08/31 02:05:28;;;;;;;5.95;2.10;;;;;;;;;;4948819;28;90036;-70
2022/08/31 02:07:54;;;;;;;4.78;2.00;;;;;;;;;;4949120;28;89967;-69
2022/08/31 02:10:21;;;;;;;4.15;2.10;;;;;;;;;;4948957;28;87857;-70
2022/08/31 02:12:48;;;;;;;3.83;1.98;;;;;;;;;;4947430;28;88868;-70
2022/08/31 02:15:15;;;;;;;3.97;2.00;;;;;;;;;;4948910;28;89819;-69
2022/08/31 02:17:42;;;;;;;2.92;1.60;;;;;;;;;;4946993;28;90404;-70
2022/08/31 02:20:10;;;;;;;3.13;2.05;;;;;;;;;;4947754;28;90675;-70
2022/08/31 02:22:36;;;;;;;5.55;1.80;;;;;;;;;;4952252;28;89132;-70
2022/08/31 02:25:04;;;;;;;4.82;2.00;;;;;;;;;;4947542;28;89873;-70
2022/08/31 02:27:31;;;;;;;2.88;1.80;;;;;;;;;;4948747;28;90387;-70
2022/08/31 02:29:58;;;;;;;3.83;1.88;;;;;;;;;;4948354;28;89198;-70
2022/08/31 02:32:24;;;;;;;2.88;1.80;;;;;;;;;;4945603;28;89867;-69
2022/08/31 02:34:50;;;;;;;3.28;2.03;;;;;;;;;;4949214;28;89491;-70
2022/08/31 02:37:17;;;;;;;2.88;1.98;;;;;;;;;;4948980;28;89046;-70
2022/08/31 02:39:46;;;;;;;7.05;1.85;;;;;;;;;;4948853;28;89136;-70
2022/08/31 02:42:14;;;;;;;3.10;1.70;;;;;;;;;;4947208;28;91276;-70
2022/08/31 02:44:43;;;;;;;4.45;1.90;;;;;;;;;;4952079;28;88592;-70
2022/08/31 02:47:10;;;;;;;4.13;1.88;;;;;;;;;;4946291;28;90101;-70
2022/08/31 02:49:36;;;;;;;4.32;1.92;;;;;;;;;;4947259;28;89315;-69
2022/08/31 02:52:03;;;;;;;4.85;2.00;;;;;;;;;;4947581;28;89849;-69
2022/08/31 02:54:29;;;;;;;2.33;1.55;;;;;;;;;;4948559;28;90127;-70
2022/08/31 02:56:55;;;;;;;3.05;1.63;;;;;;;;;;4948340;28;89016;-71
2022/08/31 02:59:22;;;;;;;4.78;1.90;;;;;;;;;;4944868;28;89841;-70
2022/08/31 03:01:48;;;;;;;4.20;1.83;;;;;;;;;;4948178;28;90107;-70
2022/08/31 03:04:16;;;;;;;7.45;1.75;;;;;;;;;;4949139;28;89086;-69
2022/08/31 03:06:42;;;;;;;5.55;1.85;;;;;;;;;;4951410;28;89600;-69
2022/08/31 03:09:08;;;;;;;3.85;1.83;;;;;;;;;;4944128;28;88783;-70
2022/08/31 03:11:34;;;;;;;3.03;1.70;;;;;;;;;;4945687;28;89904;-70
2022/08/31 03:14:01;;;;;;;2.45;1.65;;;;;;;;;;4947521;28;90300;-69
2022/08/31 03:16:27;;;;;;;2.75;1.80;;;;;;;;;;4946121;28;88862;-69
2022/08/31 03:18:53;;;;;;;4.57;1.80;;;;;;;;;;4945337;28;90027;-71
2022/08/31 03:21:20;;;;;;;2.75;1.83;;;;;;;;;;4948652;28;90029;-69
2022/08/31 03:23:46;;;;;;;4.15;1.80;;;;;;;;;;4948312;28;89300;-70
2022/08/31 03:26:12;;;;;;;3.97;1.77;;;;;;;;;;4948390;28;89591;-71
2022/08/31 03:28:39;;;;;;;3.90;1.90;;;;;;;;;;4954282;28;90081;-70
2022/08/31 03:31:06;;;;;;;3.67;1.92;;;;;;;;;;4949447;28;89839;-70
2022/08/31 03:33:33;;;;;;;4.82;1.70;;;;;;;;;;4951718;28;89950;-70
2022/08/31 03:36:01;;;;;;;7.85;2.45;;;;;;;;;;4951165;28;89077;-70
2022/08/31 03:38:28;;;;;;;4.15;1.80;;;;;;;;;;4951197;28;90410;-70
2022/08/31 03:40:54;;;;;;;4.20;1.92;;;;;;;;;;4948786;28;90480;-70
2022/08/31 03:43:20;;;;;;;4.40;2.00;;;;;;;;;;4949992;28;89223;-70
2022/08/31 03:45:48;;;;;;;3.20;1.90;;;;;;;;;;4951351;28;89627;-70
2022/08/31 03:48:14;;;;;;;4.38;2.17;;;;;;;;;;4954366;28;89352;-70
2022/08/31 03:50:41;;;;;;;6.22;1.95;;;;;;;;;;4950721;28;89344;-70
2022/08/31 03:53:09;;;;;;;10.45;1.83;;;;;;;;;;4950939;28;90138;-70
2022/08/31 03:55:37;;;;;;;4.35;1.92;;;;;;;;;;4947440;28;91140;-70
2022/08/31 03:58:03;;;;;;;6.85;2.13;;;;;;;;;;4949806;28;90590;-70
2022/08/31 04:00:31;;;;;;;3.28;1.83;;;;;;;;;;4947577;28;90263;-70
2022/08/31 04:02:58;;;;;;;6.30;2.35;;;;;;;;;;4946604;28;88881;-70
2022/08/31 04:05:29;;;;;;;5.03;1.88;;;;;;;;;;4949642;28;90054;-71
2022/08/31 04:07:55;;;;;;;2.92;1.70;;;;;;;;;;4951016;28;90259;-70
2022/08/31 04:10:21;;;;;;;4.40;1.85;;;;;;;;;;4950649;28;89195;-70
2022/08/31 04:12:49;;;;;;;3.15;1.63;;;;;;;;;;4950163;28;89135;-70
2022/08/31 04:15:16;;;;;;;2.92;1.80;;;;;;;;;;4951421;28;89075;-70
2022/08/31 04:17:43;;;;;;;4.97;1.70;;;;;;;;;;4950581;28;90033;-70
2022/08/31 04:20:09;;;;;;;2.75;1.60;;;;;;;;;;4950154;28;91314;-70
2022/08/31 04:22:35;;;;;;;3.00;1.60;;;;;;;;;;4949469;28;89224;-70
2022/08/31 04:25:02;;;;;;;2.60;1.70;;;;;;;;;;4947929;28;89755;-70
2022/08/31 04:27:28;;;;;;;2.15;1.50;;;;;;;;;;4949904;28;89778;-70
2022/08/31 04:29:54;;;;;;;7.35;1.65;;;;;;;;;;4950487;28;89110;-70
2022/08/31 04:32:21;;;;;;;2.83;1.70;;;;;;;;;;4953492;28;89798;-70
2022/08/31 04:34:47;;;;;;;2.88;1.58;;;;;;;;;;4948137;28;88942;-70
2022/08/31 04:37:21;;;;;;;3.47;1.80;;;;;;;;;;4948544;28;89887;-70
2022/08/31 04:39:47;;;;;;;8.88;1.92;;;;;;;;;;4950313;28;90308;-70
2022/08/31 04:42:17;;;;;;;3.45;1.60;;;;;;;;;;4949975;28;88584;-69
2022/08/31 04:44:43;;;;;;;3.58;1.60;;;;;;;;;;4949802;28;90052;-70
2022/08/31 19:06:20;;;;;;;3.42;1.40;;;;;;;;;;5125217;27;87448;-69
2022/08/31 19:08:47;;;;;;;4.28;1.33;;;;;;;;;;5100969;27;87808;-69
2022/08/31 19:11:13;;;;;;;3.83;1.40;;;;;;;;;;5107111;27;88401;-69
2022/08/31 19:13:40;;;;;;;6.00;1.40;;;;;;;;;;5106834;27;88510;-69
2022/08/31 19:16:07;;;;;;;3.30;1.40;;;;;;;;;;5105835;27;89138;-69
2022/08/31 19:18:42;;;;;;;3.70;1.45;;;;;;;;;;5105375;27;88113;-69
2022/08/31 19:21:13;;;;;;;7.25;1.33;;;;;;;;;;5106072;27;88622;-69
2022/08/31 19:23:39;;;;;;;8.20;1.40;;;;;;;;;;5100952;27;88117;-69
2022/08/31 19:26:06;;;;;;;6.22;1.25;;;;;;;;;;5108381;27;89028;-70
2022/08/31 19:28:33;;;;;;;2.72;1.42;;;;;;;;;;5102854;27;88911;-69
2022/08/31 19:30:59;;;;;;;5.80;1.42;;;;;;;;;;5106505;27;88509;-69
2022/08/31 19:33:26;;;;;;;3.08;1.30;;;;;;;;;;5106923;27;87669;-69
2022/08/31 19:35:58;;;;;;;7.25;1.77;;;;;;;;;;5105046;27;87870;-69
2022/08/31 19:38:28;;;;;;;6.97;1.80;;;;;;;;;;5101387;27;88373;-69
2022/08/31 19:40:58;;;;;;;5.35;1.50;;;;;;;;;;5105135;27;87547;-69
2022/08/31 19:43:24;;;;;;;4.60;1.40;;;;;;;;;;5106292;27;89019;-69
2022/08/31 19:46:12;;;;;;;7.38;1.27;;;;;;;;;;5106091;27;88161;-69
2022/08/31 19:48:39;;;;;;;4.40;1.30;;;;;;;;;;5105547;27;88743;-69
2022/08/31 19:51:13;;;;;;;6.78;1.50;;;;;;;;;;5106456;27;88337;-69
2022/08/31 19:53:42;;;;;;;3.40;1.48;;;;;;;;;;5105802;27;88562;-69
2022/08/31 19:56:16;;;;;;;4.30;1.40;;;;;;;;;;5095610;27;89758;-69
2022/08/31 19:58:47;;;;;;;5.55;2.22;;;;;;;;;;5100760;27;89258;-69
2022/08/31 20:01:14;;;;;;;3.63;1.52;;;;;;;;;;5106574;27;88614;-69
2022/08/31 20:03:40;;;;;;;3.78;1.40;;;;;;;;;;5106653;27;88793;-67
2022/08/31 20:06:08;;;;;;;6.97;1.38;;;;;;;;;;5104860;27;88337;-69
2022/08/31 20:08:34;;;;;;;3.83;1.30;;;;;;;;;;5103517;27;88720;-69
2022/08/31 20:11:01;;;;;;;4.32;1.40;;;;;;;;;;5105881;27;89658;-69
2022/08/31 20:13:28;;;;;;;3.38;1.42;;;;;;;;;;5105401;27;88953;-69
2022/08/31 20:15:54;;;;;;;3.45;1.50;;;;;;;;;;5094957;27;89848;-70
2022/08/31 20:18:26;;;;;;;3.88;1.30;;;;;;;;;;5088143;27;88441;-69
2022/08/31 20:20:53;;;;;;;8.25;1.52;;;;;;;;;;5091427;27;90429;-70
2022/08/31 20:23:20;;;;;;;1.95;1.15;;;;;;;;;;5091701;27;89069;-70
2022/08/31 20:25:48;;;;;;;3.42;1.38;;;;;;;;;;5090499;27;88454;-70
2022/08/31 20:28:14;;;;;;;2.90;1.20;;;;;;;;;;5188002;22;91240;-70
2022/08/31 20:30:42;;;;;;;5.85;1.40;;;;;;;;;;5002581;28;89079;-70
2022/08/31 20:33:10;;;;;;;5.03;1.40;;;;;;;;;;5012171;28;88806;-70
2022/08/31 20:35:41;;;;;;;3.30;1.40;;;;;;;;;;4992411;28;88343;-70
2022/08/31 20:38:11;;;;;;;2.90;1.70;;;;;;;;;;5009625;28;87671;-70
2022/08/31 20:40:39;;;;;;;6.03;1.60;;;;;;;;;;5010927;28;88965;-69
2022/08/31 20:43:09;;;;;;;3.90;1.50;;;;;;;;;;5007828;28;90671;-69
2022/08/31 20:45:36;;;;;;;4.85;1.50;;;;;;;;;;4994418;28;89584;-70
2022/08/31 20:50:49;;;;;;;7.70;1.55;;;;;;;;;;5009491;28;89217;-68
2022/08/31 20:53:17;;;;;;;8.23;2.15;;;;;;;;;;5008459;28;88879;-69
2022/08/31 20:56:05;;;;;;;2.60;1.40;;;;;;;;;;5009041;28;90244;-69
2022/08/31 20:58:32;;;;;;;5.00;1.20;;;;;;;;;;5010703;28;88737;-69
2022/08/31 21:01:02;;;;;;;8.48;1.55;;;;;;;;;;5009958;28;88373;-69
2022/08/31 21:03:28;;;;;;;45.95;2.63;;;;;;;;;;5009045;28;90315;-69
2022/08/31 21:05:54;;;;;;;8.18;1.77;;;;;;;;;;5011014;28;88487;-69
2022/08/31 21:08:21;;;;;;;4.18;1.58;;;;;;;;;;5006463;28;88602;-70
2022/08/31 21:10:47;;;;;;;8.40;1.60;;;;;;;;;;5009686;28;89161;-69
2022/08/31 21:13:15;;;;;;;3.05;1.40;;;;;;;;;;5008007;28;87471;-69
2022/08/31 21:15:43;;;;;;;4.55;1.50;;;;;;;;;;5010195;28;87324;-69
2022/08/31 21:18:10;;;;;;;4.13;1.55;;;;;;;;;;5011465;28;87137;-69
2022/08/31 21:20:36;;;;;;;6.47;1.30;;;;;;;;;;5008034;28;88567;-69
2022/08/31 21:23:03;;;;;;;4.05;1.38;;;;;;;;;;5009443;28;88733;-69
2022/08/31 21:25:29;;;;;;;5.28;1.30;;;;;;;;;;5008795;28;88360;-69
2022/08/31 21:27:56;;;;;;;3.10;1.38;;;;;;;;;;5007224;28;88406;-71
2022/08/31 21:30:23;;;;;;;4.53;1.40;;;;;;;;;;5008263;28;89055;-71
2022/08/31 21:32:49;;;;;;;4.85;1.50;;;;;;;;;;5010237;28;87406;-69
2022/08/31 21:35:16;;;;;;;10.63;1.50;;;;;;;;;;5009838;28;88681;-71
2022/08/31 21:37:44;;;;;;;2.45;1.48;;;;;;;;;;5011724;28;89107;-71
2022/08/31 21:40:11;;;;;;;1.30;1.20;;;;;;;;;;5006918;28;88562;-71
2022/08/31 21:42:37;;;;;;;2.47;1.38;;;;;;;;;;5010308;28;88746;-69
2022/08/31 21:45:04;;;;;;;6.13;1.30;;;;;;;;;;5009478;28;88407;-69
2022/08/31 21:47:30;;;;;;;3.97;1.38;;;;;;;;;;5009422;28;88071;-69
2022/08/31 21:49:56;;;;;;;3.75;1.40;;;;;;;;;;5004235;28;89942;-69
2022/08/31 21:52:23;;;;;;;2.78;1.58;;;;;;;;;;5009307;28;88416;-71
2022/08/31 21:54:50;;;;;;;2.75;1.40;;;;;;;;;;5009635;28;88374;-69
2022/08/31 21:57:16;;;;;;;2.70;1.38;;;;;;;;;;5008593;28;89135;-69
2022/08/31 21:59:43;;;;;;;2.78;1.55;;;;;;;;;;5010931;28;88360;-69
2022/08/31 22:02:10;;;;;;;4.32;1.45;;;;;;;;;;5009044;28;88696;-69
2022/08/31 22:04:38;;;;;;;3.75;1.50;;;;;;;;;;5008936;28;88443;-70
2022/08/31 22:07:06;;;;;;;6.88;2.15;;;;;;;;;;5008335;28;88396;-69
2022/08/31 22:09:33;;;;;;;2.47;1.50;;;;;;;;;;5008179;28;88844;-69
2022/08/31 22:12:05;;;;;;;4.32;1.40;;;;;;;;;;5007657;28;87929;-69
2022/08/31 22:14:34;;;;;;;5.30;1.50;;;;;;;;;;5009811;28;88564;-69
2022/08/31 22:17:04;;;;;;;4.80;1.58;;;;;;;;;;5008575;28;89051;-69
2022/08/31 22:19:34;;;;;;;2.78;1.55;;;;;;;;;;5007128;28;88472;-69
2022/08/31 22:22:03;;;;;;;5.87;1.70;;;;;;;;;;5012141;28;88726;-69
2022/08/31 22:24:31;;;;;;;4.63;1.80;;;;;;;;;;5009697;28;88412;-69
2022/08/31 22:26:59;;;;;;;4.65;1.63;;;;;;;;;;5007549;28;87700;-69
2022/08/31 22:29:27;;;;;;;2.83;1.58;;;;;;;;;;5008251;28;89319;-69
2022/08/31 22:31:56;;;;;;;3.40;1.55;;;;;;;;;;5008693;28;88905;-71
2022/08/31 22:34:22;;;;;;;2.40;1.52;;;;;;;;;;5007022;28;88740;-69
2022/08/31 22:36:50;;;;;;;3.83;1.67;;;;;;;;;;5004147;28;89270;-69
2022/08/31 22:39:19;;;;;;;5.57;2.13;;;;;;;;;;5008033;28;88570;-69
2022/08/31 22:41:46;;;;;;;6.05;1.50;;;;;;;;;;5006275;28;88522;-69
2022/08/31 22:44:15;;;;;;;5.20;1.77;;;;;;;;;;5011832;28;89371;-69
2022/08/31 22:46:42;;;;;;;4.75;1.70;;;;;;;;;;5007761;28;87380;-69
2022/08/31 22:49:09;;;;;;;5.25;1.77;;;;;;;;;;4988045;28;89570;-69
2022/08/31 22:51:36;;;;;;;3.53;1.70;;;;;;;;;;4995885;28;88360;-69
2022/08/31 22:54:03;;;;;;;8.07;1.77;;;;;;;;;;5007743;28;87460;-69
2022/08/31 22:56:31;;;;;;;3.00;1.80;;;;;;;;;;5008926;28;88700;-69
2022/08/31 22:59:03;;;;;;;4.32;1.70;;;;;;;;;;5007751;28;88375;-69
2022/08/31 23:01:31;;;;;;;4.28;1.60;;;;;;;;;;5007808;28;88537;-71
2022/08/31 23:03:59;;;;;;;7.22;1.52;;;;;;;;;;5008410;28;89098;-69
2022/08/31 23:06:27;;;;;;;7.38;1.98;;;;;;;;;;5011370;28;88949;-69
2022/08/31 23:08:54;;;;;;;2.05;1.50;;;;;;;;;;5006793;28;88931;-69
2022/08/31 23:11:21;;;;;;;3.88;2.00;;;;;;;;;;5007050;28;88541;-69
2022/08/31 23:13:51;;;;;;;4.15;1.70;;;;;;;;;;5007267;28;90369;-69
2022/08/31 23:16:18;;;;;;;2.42;1.48;;;;;;;;;;5008025;28;87780;-69
2022/08/31 23:18:48;;;;;;;5.63;1.80;;;;;;;;;;5006529;28;90259;-69
2022/08/31 23:21:16;;;;;;;4.25;2.03;;;;;;;;;;5005659;28;90067;-71
2022/08/31 23:23:43;;;;;;;2.78;1.73;;;;;;;;;;5008052;28;89447;-69
2022/08/31 23:26:10;;;;;;;3.05;1.70;;;;;;;;;;5008255;28;90194;-69
2022/08/31 23:28:37;;;;;;;3.92;1.98;;;;;;;;;;5005143;28;89163;-69
2022/08/31 23:31:06;;;;;;;6.88;1.85;;;;;;;;;;5006817;28;89749;-69
2022/08/31 23:33:33;;;;;;;5.32;1.85;;;;;;;;;;5006920;28;90058;-69
2022/08/31 23:35:59;;;;;;;7.82;1.95;;;;;;;;;;5006466;28;89332;-69
2022/08/31 23:38:26;;;;;;;6.10;2.00;;;;;;;;;;5006861;28;89935;-69
2022/08/31 23:40:55;;;;;;;3.78;1.75;;;;;;;;;;5007465;28;89322;-69
2022/08/31 23:43:21;;;;;;;5.55;1.88;;;;;;;;;;5006154;28;89503;-69
2022/08/31 23:45:48;;;;;;;3.45;1.95;;;;;;;;;;5005519;28;90299;-69
2022/08/31 23:48:14;;;;;;;3.78;1.92;;;;;;;;;;5007905;28;90890;-69
2022/08/31 23:50:41;;;;;;;3.20;2.00;;;;;;;;;;5006060;28;90530;-70
2022/08/31 23:53:13;;;;;;;4.55;2.08;;;;;;;;;;4992185;28;89845;-69
2022/08/31 23:55:43;;;;;;;4.63;1.95;;;;;;;;;;5000669;28;88689;-69
2022/08/31 23:58:12;;;;;;;7.35;1.95;;;;;;;;;;5009240;28;89884;-69
